Bogor / Citeko, Indonesia

3:00 PM WIB on March 26, 2017 (GMT +0700)
Bubulak, Bogor | | Change Station

Elev 610 ft 6.57 °S, 106.75 °E | Updated 10 seconds ago

Rain
Rain
75.2 °F
Feels Like 75 °F
N
6.4
Wind Variable Wind from South
Gusts 7.6 mph

Today
High -- | Low -- °F
--% Chance of Precip.
Yesterday
High -- | Low -- °F
Precip. -- in
Pressure 29.83 in
Visibility 0.9 miles
Clouds Few 1800 ft
Mostly Cloudy 1600 ft
Heat Index 75 °F
Dew Point 70 °F
Humidity 83%
Rainfall 0.43 in
Snow Depth Not available.
5:55 AM 6:00 PM
Waning Crescent, 4% visible
METAR WIHH 260730Z 24005KT 1500 TSRA FEW018CB BKN016 26/25 Q1010 RMK CB OVER THEFIELD
Pressure 29.83 in
Visibility 0.9 miles
Clouds Few 1800 ft
Mostly Cloudy 1600 ft
Heat Index 75 °F
Dew Point 70 °F
Humidity 83%
Rainfall 0.43 in
Snow Depth Not available.
5:55 AM 6:00 PM
Waning Crescent, 4% visible
METAR WIHH 260730Z 24005KT 1500 TSRA FEW018CB BKN016 26/25 Q1010 RMK CB OVER THEFIELD

Get Severe Weather Alerts

Thanks for signing up!

Be on the lookout for a verification email in your inbox.

You'll start receiving the daily forecast at 8 AM.

×

10-Day Weather Forecast

×

Almanac

Astronomy

Mar. 26, 2017 Rise Set
Actual Time
Civil Twilight
Nautical Twilight
Astronomical Twilight
Moon
Length of Visible Light
Length of Day
Tomorrow will be .
, % of the Moon is Illuminated

Today's Extremes

Country Highs Country Lows

Community

WunderPhotos

Upload Photos

1,962,540 photos uploaded!

WunderBlog® & News

Nearby

Air Quality

  Air Quality AQ Index Pollutant
Not available.

Snow Depth

Station Depth Elevation

Earthquake Activity

City Distance Mag. Time & Date
Minimum magnitude displayed is 2.5.

Earthquake Activity

City Distance Mag. Time & Date
Minimum magnitude displayed is 2.5.

Coastal Water Temperatures

Place Temperature

Stations

Nearby Weather Stations

Station Location Temp. Windchill Dew Point Humidity Wind Precip. Elev Updated Type